createdAt,value
2023-05-22T00:00:45.998Z,13.62
2023-05-22T00:03:17.610Z,13.58
2023-05-22T00:05:49.016Z,13.56
2023-05-22T00:08:17.295Z,13.55
2023-05-22T00:10:45.652Z,13.55
2023-05-22T00:13:13.572Z,13.56
2023-05-22T00:15:41.766Z,13.57
2023-05-22T00:18:10.009Z,13.61
2023-05-22T00:20:39.559Z,13.63
2023-05-22T00:23:12.576Z,13.67
2023-05-22T00:25:42.303Z,13.76
2023-05-22T00:28:11.993Z,13.83
2023-05-22T00:30:42.988Z,13.83
2023-05-22T00:33:12.564Z,13.72
2023-05-22T00:35:40.781Z,13.63
2023-05-22T00:38:09.335Z,13.50
2023-05-22T00:40:37.767Z,13.38
2023-05-22T00:43:08.907Z,13.25
2023-05-22T00:45:37.793Z,13.17
2023-05-22T00:48:06.203Z,13.15
2023-05-22T00:50:34.204Z,13.07
2023-05-22T00:53:02.495Z,13.07
2023-05-22T00:55:31.144Z,13.02
2023-05-22T00:57:59.744Z,12.98
2023-05-22T01:00:27.962Z,12.98
2023-05-22T01:02:56.123Z,12.91
2023-05-22T01:05:27.122Z,12.88
2023-05-22T01:07:55.312Z,12.82
2023-05-22T01:10:24.075Z,12.80
2023-05-22T01:13:05.166Z,12.91
2023-05-22T01:15:41.617Z,12.95
2023-05-22T01:18:31.809Z,12.98
2023-05-22T01:21:12.476Z,12.93
2023-05-22T01:24:16.410Z,12.93
2023-05-22T01:26:56.778Z,12.86
2023-05-22T01:29:56.183Z,12.83
2023-05-22T01:32:27.066Z,12.76
2023-05-22T01:34:59.784Z,12.77
2023-05-22T01:37:28.618Z,12.83
2023-05-22T01:39:57.433Z,12.91
2023-05-22T01:42:26.178Z,13.04
2023-05-22T01:44:55.072Z,13.05
2023-05-22T01:47:23.602Z,13.09
2023-05-22T01:49:53.502Z,13.08
2023-05-22T01:52:27.923Z,13.09
2023-05-22T01:55:04.089Z,13.06
2023-05-22T01:57:57.015Z,12.97
2023-05-22T02:00:30.269Z,12.92
2023-05-22T02:03:08.419Z,12.92
2023-05-22T02:05:39.922Z,12.86
2023-05-22T02:08:09.444Z,12.80
2023-05-22T02:10:42.864Z,12.79
2023-05-22T02:13:12.746Z,12.78
2023-05-22T02:15:49.270Z,12.79
2023-05-22T02:18:18.354Z,12.84
2023-05-22T02:20:47.456Z,12.86
2023-05-22T02:23:15.785Z,12.85
2023-05-22T02:25:43.942Z,12.85
2023-05-22T02:28:12.111Z,12.84
2023-05-22T02:30:47.235Z,12.88
2023-05-22T02:33:19.431Z,12.88
2023-05-22T02:35:54.755Z,12.89
2023-05-22T02:38:23.285Z,12.97
2023-05-22T02:40:51.718Z,13.01
2023-05-22T02:43:19.755Z,13.13
2023-05-22T02:45:47.998Z,13.25
2023-05-22T02:48:17.082Z,13.36
2023-05-22T02:50:48.136Z,13.51
2023-05-22T02:53:42.708Z,13.64
2023-05-22T02:56:12.218Z,13.74
2023-05-22T02:58:40.862Z,13.91
2023-05-22T03:01:11.211Z,14.10
2023-05-22T03:03:39.401Z,14.28
2023-05-22T03:06:09.886Z,14.44
2023-05-22T03:08:41.775Z,14.56
2023-05-22T03:11:10.334Z,14.71
2023-05-22T03:13:38.530Z,14.79
2023-05-22T03:16:06.939Z,14.83
2023-05-22T03:18:43.957Z,14.91
2023-05-22T03:21:12.988Z,15.01
2023-05-22T03:23:41.652Z,15.07
2023-05-22T03:26:15.280Z,15.17
2023-05-22T03:28:44.291Z,15.29
2023-05-22T03:31:21.959Z,15.50
2023-05-22T03:34:29.254Z,15.68
2023-05-22T03:37:00.647Z,15.87
2023-05-22T03:39:31.249Z,16.00
2023-05-22T03:42:07.600Z,16.16
2023-05-22T03:44:36.614Z,16.28
2023-05-22T03:47:11.475Z,16.43
2023-05-22T03:49:45.359Z,16.55
2023-05-22T03:52:13.445Z,16.66
2023-05-22T03:54:46.480Z,16.83
2023-05-22T03:57:36.861Z,17.00
2023-05-22T04:00:35.566Z,17.20
2023-05-22T04:03:34.620Z,17.32
2023-05-22T04:06:22.775Z,17.21
2023-05-22T04:08:54.168Z,17.04
2023-05-22T04:11:22.360Z,16.90
2023-05-22T04:13:51.323Z,16.83
2023-05-22T04:16:19.383Z,16.78
2023-05-22T04:18:47.267Z,16.71
2023-05-22T04:21:15.252Z,16.76
2023-05-22T04:23:44.760Z,16.72
2023-05-22T04:26:14.243Z,16.81
2023-05-22T04:29:01.460Z,17.00
2023-05-22T04:31:30.463Z,17.25
2023-05-22T04:34:12.328Z,17.32
2023-05-22T04:36:52.018Z,17.41
2023-05-22T04:39:26.457Z,17.38
2023-05-22T04:41:55.264Z,17.34
2023-05-22T04:44:31.166Z,17.29
2023-05-22T04:47:11.378Z,17.07
2023-05-22T04:49:47.209Z,16.67
2023-05-22T04:52:15.317Z,16.42
2023-05-22T04:54:45.088Z,16.27
2023-05-22T04:57:17.501Z,16.22
2023-05-22T04:59:46.589Z,16.13
2023-05-22T05:02:15.253Z,16.07
2023-05-22T05:04:47.237Z,15.98
2023-05-22T05:07:18.936Z,15.90
2023-05-22T05:09:49.642Z,15.86
2023-05-22T05:12:17.624Z,15.75
2023-05-22T05:14:49.094Z,15.58
2023-05-22T05:17:17.629Z,15.35
2023-05-22T05:19:45.708Z,15.18
2023-05-22T05:22:13.791Z,15.09
2023-05-22T05:24:42.178Z,15.16
2023-05-22T05:27:10.797Z,15.25
2023-05-22T05:29:39.162Z,15.26
2023-05-22T05:32:15.161Z,15.30
2023-05-22T05:34:49.010Z,15.33
2023-05-22T05:37:24.142Z,15.32
2023-05-22T05:39:53.650Z,15.24
2023-05-22T05:42:21.580Z,15.13
2023-05-22T05:44:50.106Z,15.07
2023-05-22T05:47:18.933Z,15.16
2023-05-22T05:49:46.810Z,15.20
2023-05-22T05:52:16.608Z,15.11
2023-05-22T05:54:47.584Z,15.04
2023-05-22T05:57:19.747Z,15.01
2023-05-22T05:59:47.737Z,15.05
2023-05-22T06:02:34.377Z,15.12
2023-05-22T06:05:05.256Z,15.17
2023-05-22T06:07:39.978Z,15.19
2023-05-22T06:10:12.261Z,15.33
2023-05-22T06:12:53.975Z,15.31
2023-05-22T06:15:21.851Z,15.37
2023-05-22T06:17:50.515Z,15.45
2023-05-22T06:20:21.763Z,15.46
2023-05-22T06:22:49.615Z,15.45
2023-05-22T06:25:20.538Z,15.39
2023-05-22T06:27:50.035Z,15.40
2023-05-22T06:30:28.336Z,15.42
2023-05-22T06:33:01.434Z,15.42
2023-05-22T06:35:29.449Z,15.39
2023-05-22T06:37:57.592Z,15.40
2023-05-22T06:40:29.309Z,15.43
2023-05-22T06:43:03.508Z,15.35
2023-05-22T06:45:52.045Z,15.41
2023-05-22T06:49:00.139Z,15.54
2023-05-22T06:51:51.379Z,15.79
2023-05-22T06:54:24.638Z,15.93
2023-05-22T06:56:57.880Z,15.88
2023-05-22T06:59:35.638Z,15.95
2023-05-22T07:06:06.407Z,16.47
2023-05-22T07:08:35.272Z,16.78
2023-05-22T07:11:07.262Z,17.12
2023-05-22T07:13:37.656Z,17.45
2023-05-22T07:16:06.551Z,17.77
2023-05-22T07:18:35.763Z,18.09
2023-05-22T07:21:03.462Z,18.62
2023-05-22T07:23:33.354Z,19.01
2023-05-22T07:26:03.716Z,19.38
2023-05-22T07:28:36.542Z,19.49
2023-05-22T07:31:11.898Z,19.34
2023-05-22T07:33:40.937Z,19.31
2023-05-22T07:36:08.600Z,19.43
2023-05-22T07:38:46.950Z,19.56
2023-05-22T07:41:17.915Z,19.92
2023-05-22T07:43:46.038Z,20.30
2023-05-22T07:46:19.686Z,20.55
2023-05-22T07:49:11.458Z,20.90
2023-05-22T07:51:41.880Z,20.88
2023-05-22T07:54:14.586Z,21.04
2023-05-22T07:56:48.306Z,21.16
2023-05-22T07:59:19.786Z,21.19
2023-05-22T08:01:47.902Z,21.16
2023-05-22T08:04:16.404Z,21.24
2023-05-22T08:06:44.638Z,21.45
2023-05-22T08:09:12.734Z,21.68
2023-05-22T08:11:42.317Z,21.89
2023-05-22T08:14:10.408Z,21.96
2023-05-22T08:16:38.402Z,22.00
2023-05-22T08:19:08.047Z,21.92
2023-05-22T08:21:35.970Z,21.93
2023-05-22T08:24:04.129Z,21.92
2023-05-22T08:26:33.509Z,21.72
2023-05-22T08:29:01.816Z,21.54
2023-05-22T08:31:29.743Z,21.61
2023-05-22T08:34:02.857Z,21.85
2023-05-22T08:36:34.538Z,22.13
2023-05-22T08:39:10.363Z,22.07
2023-05-22T08:41:38.419Z,22.21
2023-05-22T08:44:09.282Z,22.43
2023-05-22T08:46:41.905Z,22.67
2023-05-22T08:49:10.631Z,22.67
2023-05-22T08:51:39.898Z,22.73
2023-05-22T08:54:09.437Z,22.98
2023-05-22T08:56:40.046Z,23.11
2023-05-22T08:59:14.103Z,23.20
2023-05-22T09:01:42.952Z,23.38
2023-05-22T09:04:11.877Z,23.50
2023-05-22T09:06:39.991Z,23.43
2023-05-22T09:09:07.956Z,23.33
2023-05-22T09:11:35.891Z,23.36
2023-05-22T09:14:08.909Z,23.31
2023-05-22T09:16:53.102Z,23.21
2023-05-22T09:19:21.114Z,23.23
2023-05-22T09:21:48.898Z,23.18
2023-05-22T09:24:16.761Z,23.15
2023-05-22T09:26:44.524Z,23.22
2023-05-22T09:29:12.750Z,23.56
2023-05-22T09:31:44.661Z,23.99
2023-05-22T09:34:15.976Z,24.17
2023-05-22T09:36:43.942Z,24.14
2023-05-22T09:39:11.756Z,24.12
2023-05-22T09:41:40.500Z,24.23
2023-05-22T09:44:15.773Z,24.14
2023-05-22T09:46:50.612Z,24.18
2023-05-22T09:49:18.265Z,24.17
2023-05-22T09:51:49.630Z,24.13
2023-05-22T09:54:20.329Z,24.24
2023-05-22T09:56:50.479Z,24.33
2023-05-22T09:59:22.551Z,24.32
2023-05-22T10:01:50.846Z,24.50
2023-05-22T10:04:19.339Z,24.77
2023-05-22T10:06:52.274Z,25.04
2023-05-22T10:09:23.891Z,24.88
2023-05-22T10:11:54.881Z,24.74
2023-05-22T10:14:24.055Z,24.77
2023-05-22T10:16:53.002Z,24.76
2023-05-22T10:19:27.398Z,24.64
2023-05-22T10:21:57.624Z,24.61
2023-05-22T10:24:25.933Z,24.56
2023-05-22T10:26:56.160Z,24.51
2023-05-22T10:29:41.506Z,24.45
2023-05-22T10:32:44.366Z,24.54
2023-05-22T10:35:46.577Z,24.68
2023-05-22T10:38:26.482Z,24.92
2023-05-22T10:40:55.639Z,25.14
2023-05-22T10:43:23.691Z,25.27
2023-05-22T10:46:04.500Z,25.36
2023-05-22T10:48:48.526Z,25.47
2023-05-22T10:51:21.291Z,25.46
2023-05-22T10:53:59.841Z,25.50
2023-05-22T10:56:38.614Z,25.62
2023-05-22T10:59:08.566Z,25.65
2023-05-22T11:01:38.727Z,25.59
2023-05-22T11:04:25.944Z,25.57
2023-05-22T11:07:08.782Z,25.78
2023-05-22T11:09:47.912Z,25.97
2023-05-22T11:12:28.915Z,26.15
2023-05-22T11:15:06.344Z,26.30
2023-05-22T11:17:45.280Z,26.45
2023-05-22T11:20:23.133Z,26.59
2023-05-22T11:22:59.777Z,26.79
2023-05-22T11:25:28.934Z,26.87
2023-05-22T11:27:58.598Z,27.11
2023-05-22T11:30:28.115Z,27.38
2023-05-22T11:32:58.825Z,27.60
2023-05-22T11:35:28.659Z,27.62
2023-05-22T11:37:59.076Z,27.73
2023-05-22T11:40:29.879Z,27.59
2023-05-22T11:43:01.071Z,27.66
2023-05-22T11:45:29.154Z,27.68
2023-05-22T11:47:58.604Z,27.60
2023-05-22T11:50:43.931Z,27.45
2023-05-22T11:53:12.864Z,27.42
2023-05-22T11:55:42.996Z,27.43
2023-05-22T11:58:11.125Z,27.46
2023-05-22T12:00:39.544Z,27.50
2023-05-22T12:03:07.643Z,27.58
2023-05-22T12:05:35.779Z,27.67
2023-05-22T12:08:06.935Z,27.69
2023-05-22T12:10:36.348Z,27.60
2023-05-22T12:13:04.360Z,27.53
2023-05-22T12:15:32.012Z,27.40
2023-05-22T12:18:00.294Z,27.29
2023-05-22T12:20:31.353Z,27.28
2023-05-22T12:23:00.164Z,27.45
2023-05-22T12:25:39.546Z,27.67
2023-05-22T12:28:07.717Z,27.89
2023-05-22T12:30:42.612Z,27.92
2023-05-22T12:33:15.301Z,28.08
2023-05-22T12:35:43.352Z,28.55
2023-05-22T12:38:11.475Z,29.79
2023-05-22T12:40:39.744Z,31.36
2023-05-22T12:43:08.096Z,32.66
2023-05-22T12:45:36.364Z,33.85
2023-05-22T12:48:04.639Z,34.55
2023-05-22T12:50:32.682Z,35.12
2023-05-22T12:53:02.513Z,35.56
2023-05-22T12:55:31.296Z,35.62
2023-05-22T12:57:59.634Z,35.70
2023-05-22T13:00:27.774Z,36.05
2023-05-22T13:02:56.959Z,36.39
2023-05-22T13:05:27.410Z,36.88
2023-05-22T13:07:55.277Z,37.49
2023-05-22T13:10:23.074Z,37.96
2023-05-22T13:12:51.697Z,37.80
2023-05-22T13:15:19.603Z,37.74
2023-05-22T13:17:47.504Z,37.53
2023-05-22T13:20:18.451Z,37.20
2023-05-22T13:22:46.472Z,37.31
2023-05-22T13:25:15.082Z,37.30
2023-05-22T13:27:47.817Z,37.05
2023-05-22T13:30:18.898Z,36.98
2023-05-22T13:32:47.245Z,36.57
2023-05-22T13:35:15.925Z,36.20
2023-05-22T13:37:43.848Z,35.68
2023-05-22T13:40:11.967Z,35.11
2023-05-22T13:42:43.700Z,34.83
2023-05-22T13:45:12.859Z,34.69
2023-05-22T13:47:41.127Z,34.45
2023-05-22T13:50:12.982Z,33.90
2023-05-22T13:52:41.044Z,33.03
2023-05-22T13:55:09.044Z,32.23
2023-05-22T13:57:40.786Z,31.58
2023-05-22T14:00:10.424Z,30.85
2023-05-22T14:02:38.675Z,30.51
2023-05-22T14:05:07.147Z,30.33
2023-05-22T14:07:35.237Z,30.35
2023-05-22T14:10:04.647Z,30.27
2023-05-22T14:12:34.920Z,30.07
2023-05-22T14:15:03.053Z,29.92
2023-05-22T14:17:34.625Z,29.72
2023-05-22T14:20:02.522Z,29.48
2023-05-22T14:22:48.024Z,29.19
2023-05-22T14:25:23.218Z,28.87
2023-05-22T14:27:52.809Z,28.38
2023-05-22T14:30:21.094Z,27.99
2023-05-22T14:32:49.030Z,27.72
2023-05-22T14:35:19.089Z,27.53
2023-05-22T14:37:47.072Z,27.48
2023-05-22T14:40:15.024Z,27.45
2023-05-22T14:42:42.876Z,27.54
2023-05-22T14:45:11.294Z,27.52
2023-05-22T14:47:40.904Z,27.46
2023-05-22T14:50:18.887Z,27.29
2023-05-22T14:52:50.110Z,27.08
2023-05-22T14:55:18.586Z,26.91
2023-05-22T14:57:48.185Z,26.64
2023-05-22T15:00:16.897Z,26.40
2023-05-22T15:02:45.110Z,26.10
2023-05-22T15:05:12.836Z,25.93
2023-05-22T15:07:44.639Z,25.78
2023-05-22T15:10:13.616Z,25.61
2023-05-22T15:12:41.276Z,25.40
2023-05-22T15:15:09.380Z,25.09
2023-05-22T15:17:36.934Z,24.78
2023-05-22T15:20:05.660Z,24.55
2023-05-22T15:22:33.498Z,24.42
2023-05-22T15:25:05.880Z,24.26
2023-05-22T15:27:35.357Z,24.18
2023-05-22T15:30:04.566Z,24.15
2023-05-22T15:32:37.073Z,24.24
2023-05-22T15:35:06.274Z,24.31
2023-05-22T15:37:34.400Z,24.35
2023-05-22T15:40:04.464Z,24.32
2023-05-22T15:42:35.368Z,24.36
2023-05-22T15:45:03.404Z,24.27
2023-05-22T15:47:34.770Z,24.16
2023-05-22T15:50:02.833Z,24.00
2023-05-22T15:52:32.372Z,23.79
2023-05-22T15:54:59.966Z,23.62
2023-05-22T15:57:29.143Z,23.40
2023-05-22T15:59:57.462Z,23.20
2023-05-22T16:02:25.608Z,22.92
2023-05-22T16:04:53.355Z,22.65
2023-05-22T16:07:20.999Z,22.45
2023-05-22T16:09:50.362Z,22.28
2023-05-22T16:12:18.829Z,22.18
2023-05-22T16:14:47.089Z,22.13
2023-05-22T16:17:14.759Z,22.03
2023-05-22T16:19:43.222Z,21.96
2023-05-22T16:22:10.858Z,21.97
2023-05-22T16:24:38.481Z,21.94
2023-05-22T16:27:06.649Z,21.81
2023-05-22T16:29:34.636Z,21.63
2023-05-22T16:32:02.406Z,21.46
2023-05-22T16:34:32.135Z,21.39
2023-05-22T16:37:00.894Z,21.30
2023-05-22T16:39:28.542Z,21.14
2023-05-22T16:41:56.362Z,20.92
2023-05-22T16:44:24.109Z,20.71
2023-05-22T16:46:52.114Z,20.63
2023-05-22T16:49:19.690Z,20.51
2023-05-22T16:51:47.749Z,20.41
2023-05-22T16:54:15.802Z,20.29
2023-05-22T16:56:43.778Z,20.13
2023-05-22T16:59:12.018Z,19.95
2023-05-22T17:01:39.858Z,19.83
2023-05-22T17:04:07.477Z,19.71
2023-05-22T17:06:36.097Z,19.56
2023-05-22T17:09:03.701Z,19.46
2023-05-22T17:11:31.531Z,19.31
2023-05-22T17:13:59.404Z,19.25
2023-05-22T17:16:27.168Z,19.14
2023-05-22T17:18:55.499Z,19.07
2023-05-22T17:21:24.564Z,18.96
2023-05-22T17:24:01.118Z,18.89
2023-05-22T17:26:30.071Z,18.82
2023-05-22T17:28:57.867Z,18.73
2023-05-22T17:31:25.867Z,18.69
2023-05-22T17:33:53.929Z,18.62
2023-05-22T17:36:21.983Z,18.57
2023-05-22T17:38:49.777Z,18.50
2023-05-22T17:41:17.433Z,18.41
2023-05-22T17:43:46.280Z,18.35
2023-05-22T17:46:14.242Z,18.30
2023-05-22T17:48:41.955Z,18.26
2023-05-22T17:51:10.189Z,18.19
2023-05-22T17:53:39.253Z,18.12
2023-05-22T17:56:07.544Z,18.04
2023-05-22T17:58:35.592Z,18.00
2023-05-22T18:01:03.518Z,17.94
2023-05-22T18:03:31.462Z,17.85
2023-05-22T18:05:59.896Z,17.79
2023-05-22T18:08:28.464Z,17.72
2023-05-22T18:10:57.960Z,17.67
2023-05-22T18:13:26.063Z,17.59
2023-05-22T18:15:54.379Z,17.52
2023-05-22T18:18:22.843Z,17.48
2023-05-22T18:20:50.791Z,17.48
2023-05-22T18:23:19.875Z,17.50
2023-05-22T18:25:47.798Z,17.51
2023-05-22T18:28:15.731Z,17.49
2023-05-22T18:30:47.389Z,17.43
2023-05-22T18:33:16.705Z,17.39
2023-05-22T18:35:44.488Z,17.39
2023-05-22T18:38:12.506Z,17.42
2023-05-22T18:40:40.556Z,17.42
2023-05-22T18:43:08.538Z,17.40
2023-05-22T18:45:36.540Z,17.41
2023-05-22T18:48:04.628Z,17.46
2023-05-22T18:50:32.573Z,17.54
2023-05-22T18:53:00.431Z,17.57
2023-05-22T18:55:28.370Z,17.60
2023-05-22T18:57:56.930Z,17.59
2023-05-22T19:00:24.951Z,17.55
2023-05-22T19:02:53.197Z,17.54
2023-05-22T19:05:21.249Z,17.49
2023-05-22T19:07:48.934Z,17.49
2023-05-22T19:10:16.781Z,17.42
2023-05-22T19:12:44.567Z,17.35
2023-05-22T19:15:12.451Z,17.30
2023-05-22T19:17:40.007Z,17.23
2023-05-22T19:20:08.933Z,17.20
2023-05-22T19:22:37.013Z,17.19
2023-05-22T19:25:07.788Z,17.10
2023-05-22T19:27:36.733Z,17.05
2023-05-22T19:30:07.337Z,16.98
2023-05-22T19:32:35.387Z,16.91
2023-05-22T19:35:03.344Z,16.96
2023-05-22T19:37:32.577Z,16.97
2023-05-22T19:40:00.286Z,17.03
2023-05-22T19:42:28.260Z,17.04
2023-05-22T19:44:56.327Z,17.07
2023-05-22T19:47:30.809Z,17.07
2023-05-22T19:49:58.936Z,17.03
2023-05-22T19:52:26.910Z,17.07
2023-05-22T19:54:54.838Z,17.10
2023-05-22T19:57:22.678Z,17.12
2023-05-22T19:59:50.821Z,17.14
2023-05-22T20:02:18.563Z,17.14
2023-05-22T20:04:49.600Z,17.14
2023-05-22T20:07:17.342Z,17.11
2023-05-22T20:09:45.432Z,17.10
2023-05-22T20:12:12.935Z,17.07
2023-05-22T20:14:40.692Z,17.04
2023-05-22T20:17:08.277Z,17.01
2023-05-22T20:19:35.971Z,17.02
2023-05-22T20:22:05.633Z,17.01
2023-05-22T20:24:35.618Z,16.98
2023-05-22T20:27:05.295Z,16.97
2023-05-22T20:29:33.514Z,16.97
2023-05-22T20:32:01.328Z,16.97
2023-05-22T20:34:29.207Z,16.92
2023-05-22T20:36:58.482Z,16.91
2023-05-22T20:39:26.954Z,16.90
2023-05-22T20:41:54.823Z,16.87
2023-05-22T20:44:24.737Z,16.85
2023-05-22T20:46:55.918Z,16.86
2023-05-22T20:49:23.656Z,16.87
2023-05-22T20:51:51.951Z,16.93
2023-05-22T20:54:19.527Z,16.97
2023-05-22T20:56:47.565Z,17.04
2023-05-22T20:59:16.391Z,17.06
2023-05-22T21:01:45.013Z,17.09
2023-05-22T21:04:13.248Z,17.15
2023-05-22T21:06:41.390Z,17.17
2023-05-22T21:09:09.536Z,17.21
2023-05-22T21:11:37.316Z,17.23
2023-05-22T21:14:05.193Z,17.22
2023-05-22T21:16:33.218Z,17.26
2023-05-22T21:19:01.226Z,17.25
2023-05-22T21:21:29.308Z,17.25
2023-05-22T21:23:57.129Z,17.25
2023-05-22T21:26:24.974Z,17.22
2023-05-22T21:28:52.774Z,17.25
2023-05-22T21:31:20.707Z,17.26
2023-05-22T21:33:48.272Z,17.23
2023-05-22T21:36:16.313Z,17.24
2023-05-22T21:38:44.527Z,17.19
2023-05-22T21:41:12.778Z,17.16
2023-05-22T21:43:40.477Z,17.11
2023-05-22T21:46:08.746Z,17.10
2023-05-22T21:48:36.317Z,17.05
2023-05-22T21:51:04.213Z,16.99
2023-05-22T21:53:32.060Z,16.92
2023-05-22T21:56:00.039Z,16.86
2023-05-22T21:58:27.821Z,16.74
2023-05-22T22:00:55.689Z,16.70
2023-05-22T22:03:23.347Z,16.62
2023-05-22T22:05:51.422Z,16.54
2023-05-22T22:08:19.206Z,16.44
2023-05-22T22:10:47.159Z,16.41
2023-05-22T22:13:15.134Z,16.36
2023-05-22T22:15:42.756Z,16.30
2023-05-22T22:18:15.164Z,16.24
2023-05-22T22:20:45.264Z,16.17
2023-05-22T22:23:13.393Z,16.12
2023-05-22T22:25:41.685Z,16.03
2023-05-22T22:28:09.501Z,15.99
2023-05-22T22:30:37.145Z,15.89
2023-05-22T22:33:05.632Z,15.82
2023-05-22T22:35:33.858Z,15.74
2023-05-22T22:38:01.816Z,15.69
2023-05-22T22:40:29.645Z,15.65
2023-05-22T22:42:57.907Z,15.58
2023-05-22T22:45:25.738Z,15.54
2023-05-22T22:47:56.896Z,15.45
2023-05-22T22:50:24.613Z,15.43
2023-05-22T22:52:52.355Z,15.38
2023-05-22T22:55:20.756Z,15.34
2023-05-22T22:57:50.211Z,15.32
2023-05-22T23:00:19.367Z,15.26
2023-05-22T23:02:47.347Z,15.27
2023-05-22T23:05:20.589Z,15.27
2023-05-22T23:07:49.243Z,15.29
2023-05-22T23:10:17.523Z,15.29
2023-05-22T23:12:48.538Z,15.28
2023-05-22T23:15:16.921Z,15.29
2023-05-22T23:17:44.823Z,15.25
2023-05-22T23:20:12.677Z,15.17
2023-05-22T23:22:40.712Z,15.13
2023-05-22T23:25:09.271Z,15.04
2023-05-22T23:27:37.842Z,15.00
2023-05-22T23:30:08.775Z,14.92
2023-05-22T23:32:36.994Z,14.88
2023-05-22T23:35:05.847Z,14.87
2023-05-22T23:37:33.819Z,14.82
2023-05-22T23:40:01.569Z,14.78
2023-05-22T23:42:32.465Z,14.72
2023-05-22T23:45:00.167Z,14.63
2023-05-22T23:47:28.536Z,14.55
2023-05-22T23:49:57.228Z,14.47
2023-05-22T23:52:24.802Z,14.39
2023-05-22T23:54:52.824Z,14.33
2023-05-22T23:57:21.044Z,14.27
2023-05-22T23:59:48.808Z,14.27
